Coral Topaz — 3ELB7 — position and weather

sailwx.info

Track history (hours):
 
Tides and Currents Weather Stations Pressure Air Temp Water Temp Dewpoint Dewpoint Depression Visibility Wind Speed Wind Dir Waves Ship Positions

Coral Topaz

Last reported at 2014-Jul-06 00:23 UTC. Time now 2014-Jul-22 19:53 UTC.
Position S 27°01' E 153°46'.
Warning: this ship's position is 16 days out of date.

Length 225 m; draft 12.7 m.

Type: Ship. MMSI: 372904000.

Date/timePositionNaut miles runAvg speedWind from/ knotsBaromVisibWave heightAir tempDewpointWater temp
2014-Jul-06 00:23S 27°01' E 153°46'810.3
2014-Jul-05 23:34S 27°09' E 153°45'1110.4
2014-Jul-05 22:31S 27°20' E 153°43'11 9.6
2014-Jul-05 21:22S 27°31' E 153°42'287 9.6
2014-Jul-04 15:18S 32°15' E 152°51'810.5
2014-Jul-04 14:33S 32°22' E 152°48'10 9.9
2014-Jul-04 13:33S 32°31' E 152°41'10 9.7
2014-Jul-04 12:33S 32°37' E 152°33'10 9.6
2014-Jul-04 11:34S 32°44' E 152°25'10 9.5
2014-Jul-04 10:33S 32°50' E 152°16'10 9.7
2014-Jul-04 09:33S 32°56' E 152°07'1010.3
2014-Jul-04 08:33S 32°57' E 151°55'7 7.0
2014-Jul-04 07:33S 32°55' E 151°47'2 2.2
2014-Jul-04 06:31S 32°53' E 151°46'0 0.0
2014-Jul-04 05:31S 32°53' E 151°46'0 0.0
2014-Jul-04 04:31S 32°53' E 151°46'0 0.0
2014-Jul-04 03:31S 32°53' E 151°46'0 0.0
2014-Jul-04 02:25S 32°53' E 151°46'0 0.0
2014-Jul-04 01:31S 32°53' E 151°46'0 0.0
2014-Jul-03 23:31S 32°53' E 151°46'0 0.0
2014-Jul-03 22:31S 32°53' E 151°46'0 0.0
2014-Jul-03 21:31S 32°53' E 151°46'0 0.0
2014-Jul-03 20:31S 32°53' E 151°46'0 0.0
2014-Jul-03 19:31S 32°53' E 151°46'0 0.0
2014-Jul-03 18:31S 32°53' E 151°46'0 0.0
2014-Jul-03 17:31S 32°53' E 151°46'0 0.0
2014-Jul-03 16:31S 32°53' E 151°46'0 0.0
2014-Jul-03 15:31S 32°53' E 151°46'0 0.0
2014-Jul-03 14:31S 32°53' E 151°46'2 1.8
2014-Jul-03 13:33S 32°55' E 151°46'7 7.0
2014-Jul-03 12:33S 32°59' E 151°53'5 4.8
2014-Jul-03 11:33S 33°02' E 151°57'6 6.1
2014-Jul-03 10:32S 33°05' E 152°04'1 0.6
2014-Jul-03 09:32S 33°05' E 152°04'1 0.6
2014-Jul-03 08:32S 33°05' E 152°05'0 0.4
2014-Jul-03 07:32S 33°05' E 152°05'0 0.2
2014-Jul-03 06:32S 33°04' E 152°05'7 7.1
2014-Jul-03 05:33S 32°58' E 152°02'8 8.2
2014-Jul-03 04:33S 32°56' E 152°12'3 2.6
2014-Jul-03 03:31S 32°56' E 152°15'1 0.9
2014-Jul-03 02:31S 32°57' E 152°16'1 0.8
2014-Jul-03 01:31S 32°57' E 152°16'1 0.8
2014-Jul-03 00:31S 32°58' E 152°16'1 0.9
2014-Jul-02 23:28S 32°59' E 152°16'1 1.0
2014-Jul-02 22:31S 32°60' E 152°16'1 1.0
2014-Jul-02 21:31S 33°01' E 152°15'1 1.0
2014-Jul-02 20:31S 33°02' E 152°15'1 1.0
2014-Jul-02 19:31S 33°03' E 152°14'1 1.1
2014-Jul-02 18:31S 33°03' E 152°13'1 1.1
2014-Jul-02 17:31S 33°04' E 152°13'1 1.1
2014-Jul-02 16:31S 33°05' E 152°12'1 1.0
2014-Jul-02 15:31S 33°06' E 152°11'1 0.9
2014-Jul-02 14:31S 33°07' E 152°11'0 0.5
2014-Jul-02 13:31S 33°07' E 152°10'0 0.4
2014-Jul-02 12:31S 33°08' E 152°10'0 0.5
2014-Jul-02 11:31S 33°08' E 152°11'1 0.6
2014-Jul-02 10:31S 33°09' E 152°11'5 4.9
2014-Jul-02 09:33S 33°07' E 152°05'9 9.2
2014-Jul-02 08:33S 33°04' E 151°55'2 2.3
2014-Jul-02 07:32S 33°04' E 151°58'2 2.1
2014-Jul-02 06:32S 33°04' E 152°00'2 2.0
2014-Jul-02 05:33S 33°04' E 152°03'2 2.3
2014-Jul-02 04:33S 33°05' E 152°05'1010.1
2014-Jul-02 03:33S 33°01' E 152°16'1211.8
2014-Jul-02 02:33S 32°55' E 152°28'1111.3
2014-Jul-02 01:32S 32°50' E 152°40'1010.5
2014-Jul-02 00:33S 32°45' E 152°51'6 0.6
2014-Jul-01 14:32S 32°41' E 152°57'2 1.9
2014-Jul-01 13:32S 32°42' E 152°55'2 2.0
2014-Jul-01 12:32S 32°43' E 152°53'6 2.1
2014-Jul-01 09:26S 32°49' E 152°49'2 2.3
2014-Jul-01 08:32S 32°51' E 152°48'3 2.4
2014-Jul-01 07:14S 32°53' E 152°46'2 2.5
2014-Jul-01 06:32S 32°55' E 152°45'3 2.6
2014-Jul-01 05:32S 32°57' E 152°44'3 2.6
2014-Jul-01 04:28S 32°59' E 152°42'3 2.7
2014-Jul-01 03:32S 33°02' E 152°40'8 2.0
2014-Jun-30 23:28S 33°07' E 152°33'1010.8
2014-Jun-30 22:33S 32°59' E 152°26'1111.0
2014-Jun-30 21:33S 32°49' E 152°19'1 0.8
2014-Jun-30 20:28S 32°49' E 152°18'1 1.4
2014-Jun-30 19:31S 32°50' E 152°18'1 1.5
2014-Jun-30 18:31S 32°52' E 152°17'2 1.6
2014-Jun-30 17:31S 32°53' E 152°16'1 1.5
2014-Jun-30 16:31S 32°55' E 152°16'2 1.5
2014-Jun-30 15:31S 32°56' E 152°16'2 1.6
2014-Jun-30 14:31S 32°58' E 152°15'2 1.5
2014-Jun-30 13:31S 32°59' E 152°15'1 0.5
2014-Jun-30 12:33S 32°60' E 152°15'9 9.0
2014-Jun-30 11:33S 32°54' E 152°23'1110.8
2014-Jun-30 10:33S 32°47' E 152°33'1010.3
2014-Jun-30 09:33S 32°42' E 152°44'10 9.9
2014-Jun-30 08:33S 32°38' E 152°55'  
Track history (hours):
 
Tides and Currents Weather Stations Pressure Air Temp Water Temp Dewpoint Dewpoint Depression Visibility Wind Speed Wind Dir Waves Ship Positions

Coral Topaz

Last reported at 2014-Jul-06 00:23 UTC. Time now 2014-Jul-22 19:53 UTC.
Position S 27°01' E 153°46'.
Warning: this ship's position is 16 days out of date.

Length 225 m; draft 12.7 m.

Type: Ship. MMSI: 372904000.

Date/timePositionNaut miles runAvg speedWind from/ knotsBaromVisibWave heightAir tempDewpointWater temp
2014-Jul-06 00:23S 27°01' E 153°46'810.3
2014-Jul-05 23:34S 27°09' E 153°45'1110.4
2014-Jul-05 22:31S 27°20' E 153°43'11 9.6
2014-Jul-05 21:22S 27°31' E 153°42'287 9.6
2014-Jul-04 15:18S 32°15' E 152°51'810.5
2014-Jul-04 14:33S 32°22' E 152°48'10 9.9
2014-Jul-04 13:33S 32°31' E 152°41'10 9.7
2014-Jul-04 12:33S 32°37' E 152°33'10 9.6
2014-Jul-04 11:34S 32°44' E 152°25'10 9.5
2014-Jul-04 10:33S 32°50' E 152°16'10 9.7
2014-Jul-04 09:33S 32°56' E 152°07'1010.3
2014-Jul-04 08:33S 32°57' E 151°55'7 7.0
2014-Jul-04 07:33S 32°55' E 151°47'2 2.2
2014-Jul-04 06:31S 32°53' E 151°46'0 0.0
2014-Jul-04 05:31S 32°53' E 151°46'0 0.0
2014-Jul-04 04:31S 32°53' E 151°46'0 0.0
2014-Jul-04 03:31S 32°53' E 151°46'0 0.0
2014-Jul-04 02:25S 32°53' E 151°46'0 0.0
2014-Jul-04 01:31S 32°53' E 151°46'0 0.0
2014-Jul-03 23:31S 32°53' E 151°46'0 0.0
2014-Jul-03 22:31S 32°53' E 151°46'0 0.0
2014-Jul-03 21:31S 32°53' E 151°46'0 0.0
2014-Jul-03 20:31S 32°53' E 151°46'0 0.0
2014-Jul-03 19:31S 32°53' E 151°46'0 0.0
2014-Jul-03 18:31S 32°53' E 151°46'0 0.0
2014-Jul-03 17:31S 32°53' E 151°46'0 0.0
2014-Jul-03 16:31S 32°53' E 151°46'0 0.0
2014-Jul-03 15:31S 32°53' E 151°46'0 0.0
2014-Jul-03 14:31S 32°53' E 151°46'2 1.8
2014-Jul-03 13:33S 32°55' E 151°46'7 7.0
2014-Jul-03 12:33S 32°59' E 151°53'5 4.8
2014-Jul-03 11:33S 33°02' E 151°57'6 6.1
2014-Jul-03 10:32S 33°05' E 152°04'1 0.6
2014-Jul-03 09:32S 33°05' E 152°04'1 0.6
2014-Jul-03 08:32S 33°05' E 152°05'0 0.4
2014-Jul-03 07:32S 33°05' E 152°05'0 0.2
2014-Jul-03 06:32S 33°04' E 152°05'7 7.1
2014-Jul-03 05:33S 32°58' E 152°02'8 8.2
2014-Jul-03 04:33S 32°56' E 152°12'3 2.6
2014-Jul-03 03:31S 32°56' E 152°15'1 0.9
2014-Jul-03 02:31S 32°57' E 152°16'1 0.8
2014-Jul-03 01:31S 32°57' E 152°16'1 0.8
2014-Jul-03 00:31S 32°58' E 152°16'1 0.9
2014-Jul-02 23:28S 32°59' E 152°16'1 1.0
2014-Jul-02 22:31S 32°60' E 152°16'1 1.0
2014-Jul-02 21:31S 33°01' E 152°15'1 1.0
2014-Jul-02 20:31S 33°02' E 152°15'1 1.0
2014-Jul-02 19:31S 33°03' E 152°14'1 1.1
2014-Jul-02 18:31S 33°03' E 152°13'1 1.1
2014-Jul-02 17:31S 33°04' E 152°13'1 1.1
2014-Jul-02 16:31S 33°05' E 152°12'1 1.0
2014-Jul-02 15:31S 33°06' E 152°11'1 0.9
2014-Jul-02 14:31S 33°07' E 152°11'0 0.5
2014-Jul-02 13:31S 33°07' E 152°10'0 0.4
2014-Jul-02 12:31S 33°08' E 152°10'0 0.5
2014-Jul-02 11:31S 33°08' E 152°11'1 0.6
2014-Jul-02 10:31S 33°09' E 152°11'5 4.9
2014-Jul-02 09:33S 33°07' E 152°05'9 9.2
2014-Jul-02 08:33S 33°04' E 151°55'2 2.3
2014-Jul-02 07:32S 33°04' E 151°58'2 2.1
2014-Jul-02 06:32S 33°04' E 152°00'2 2.0
2014-Jul-02 05:33S 33°04' E 152°03'2 2.3
2014-Jul-02 04:33S 33°05' E 152°05'1010.1
2014-Jul-02 03:33S 33°01' E 152°16'1211.8
2014-Jul-02 02:33S 32°55' E 152°28'1111.3
2014-Jul-02 01:32S 32°50' E 152°40'1010.5
2014-Jul-02 00:33S 32°45' E 152°51'6 0.6
2014-Jul-01 14:32S 32°41' E 152°57'2 1.9
2014-Jul-01 13:32S 32°42' E 152°55'2 2.0
2014-Jul-01 12:32S 32°43' E 152°53'6 2.1
2014-Jul-01 09:26S 32°49' E 152°49'2 2.3
2014-Jul-01 08:32S 32°51' E 152°48'3 2.4
2014-Jul-01 07:14S 32°53' E 152°46'2 2.5
2014-Jul-01 06:32S 32°55' E 152°45'3 2.6
2014-Jul-01 05:32S 32°57' E 152°44'3 2.6
2014-Jul-01 04:28S 32°59' E 152°42'3 2.7
2014-Jul-01 03:32S 33°02' E 152°40'8 2.0
2014-Jun-30 23:28S 33°07' E 152°33'1010.8
2014-Jun-30 22:33S 32°59' E 152°26'1111.0
2014-Jun-30 21:33S 32°49' E 152°19'1 0.8
2014-Jun-30 20:28S 32°49' E 152°18'1 1.4
2014-Jun-30 19:31S 32°50' E 152°18'1 1.5
2014-Jun-30 18:31S 32°52' E 152°17'2 1.6
2014-Jun-30 17:31S 32°53' E 152°16'1 1.5
2014-Jun-30 16:31S 32°55' E 152°16'2 1.5
2014-Jun-30 15:31S 32°56' E 152°16'2 1.6
2014-Jun-30 14:31S 32°58' E 152°15'2 1.5
2014-Jun-30 13:31S 32°59' E 152°15'1 0.5
2014-Jun-30 12:33S 32°60' E 152°15'9 9.0
2014-Jun-30 11:33S 32°54' E 152°23'1110.8
2014-Jun-30 10:33S 32°47' E 152°33'1010.3
2014-Jun-30 09:33S 32°42' E 152°44'10 9.9
2014-Jun-30 08:33S 32°38' E 152°55'  

Dump ship's entire track history